sensor_id;sensor_type;location;lat;lon;timestamp;P1;durP1;ratioP1;P2;durP2;ratioP2
75071;SDS011;63651;55.728;38.022;2023-04-06T00:26:33;4.07;;;2.83;;
75071;SDS011;63651;55.728;38.022;2023-04-06T00:31:34;5.30;;;3.08;;
75071;SDS011;63651;55.728;38.022;2023-04-06T00:36:35;3.33;;;3.03;;
75071;SDS011;63651;55.728;38.022;2023-04-06T00:41:37;3.53;;;2.47;;
75071;SDS011;63651;55.728;38.022;2023-04-06T00:46:40;3.40;;;2.75;;
75071;SDS011;63651;55.728;38.022;2023-04-06T00:51:41;4.32;;;3.53;;
75071;SDS011;63651;55.728;38.022;2023-04-06T00:56:42;3.70;;;2.85;;
75071;SDS011;63651;55.728;38.022;2023-04-06T01:01:44;3.00;;;2.50;;
75071;SDS011;63651;55.728;38.022;2023-04-06T01:06:45;3.58;;;2.97;;
75071;SDS011;63651;55.728;38.022;2023-04-06T01:11:46;4.47;;;2.83;;
75071;SDS011;63651;55.728;38.022;2023-04-06T01:16:47;3.28;;;2.38;;
75071;SDS011;63651;55.728;38.022;2023-04-06T01:21:48;3.45;;;2.50;;
75071;SDS011;63651;55.728;38.022;2023-04-06T01:26:51;3.63;;;3.33;;
75071;SDS011;63651;55.728;38.022;2023-04-06T01:31:52;4.32;;;3.08;;
75071;SDS011;63651;55.728;38.022;2023-04-06T01:36:53;3.45;;;2.90;;
75071;SDS011;63651;55.728;38.022;2023-04-06T01:41:54;3.22;;;2.45;;
75071;SDS011;63651;55.728;38.022;2023-04-06T01:46:55;3.90;;;2.85;;
75071;SDS011;63651;55.728;38.022;2023-04-06T01:51:57;3.60;;;3.25;;
75071;SDS011;63651;55.728;38.022;2023-04-06T01:56:58;3.35;;;2.90;;
75071;SDS011;63651;55.728;38.022;2023-04-06T02:01:59;3.53;;;2.60;;
75071;SDS011;63651;55.728;38.022;2023-04-06T02:07:00;3.83;;;2.65;;
75071;SDS011;63651;55.728;38.022;2023-04-06T02:12:01;3.47;;;3.17;;
75071;SDS011;63651;55.728;38.022;2023-04-06T02:17:02;3.80;;;2.88;;
75071;SDS011;63651;55.728;38.022;2023-04-06T02:22:04;3.03;;;2.40;;
75071;SDS011;63651;55.728;38.022;2023-04-06T02:27:05;3.22;;;2.30;;
75071;SDS011;63651;55.728;38.022;2023-04-06T02:32:06;4.03;;;2.83;;
75071;SDS011;63651;55.728;38.022;2023-04-06T02:37:07;2.75;;;1.95;;
75071;SDS011;63651;55.728;38.022;2023-04-06T02:42:08;4.03;;;2.60;;
75071;SDS011;63651;55.728;38.022;2023-04-06T02:47:10;3.05;;;2.20;;
75071;SDS011;63651;55.728;38.022;2023-04-06T02:52:11;3.28;;;2.65;;
75071;SDS011;63651;55.728;38.022;2023-04-06T02:57:12;4.07;;;2.83;;
75071;SDS011;63651;55.728;38.022;2023-04-06T03:02:13;4.28;;;2.33;;
75071;SDS011;63651;55.728;38.022;2023-04-06T03:07:14;4.35;;;2.50;;
75071;SDS011;63651;55.728;38.022;2023-04-06T03:12:15;2.83;;;2.22;;
75071;SDS011;63651;55.728;38.022;2023-04-06T03:17:16;3.03;;;2.38;;
75071;SDS011;63651;55.728;38.022;2023-04-06T03:22:17;2.85;;;2.55;;
75071;SDS011;63651;55.728;38.022;2023-04-06T03:27:18;3.15;;;2.10;;
75071;SDS011;63651;55.728;38.022;2023-04-06T03:32:19;3.35;;;2.70;;
75071;SDS011;63651;55.728;38.022;2023-04-06T03:37:20;2.80;;;2.10;;
75071;SDS011;63651;55.728;38.022;2023-04-06T03:42:21;3.00;;;2.22;;
75071;SDS011;63651;55.728;38.022;2023-04-06T03:47:22;2.53;;;2.22;;
75071;SDS011;63651;55.728;38.022;2023-04-06T03:52:23;3.67;;;2.20;;
75071;SDS011;63651;55.728;38.022;2023-04-06T03:57:24;3.10;;;2.10;;
75071;SDS011;63651;55.728;38.022;2023-04-06T04:02:25;5.47;;;2.20;;
75071;SDS011;63651;55.728;38.022;2023-04-06T04:07:26;5.45;;;2.60;;
75071;SDS011;63651;55.728;38.022;2023-04-06T04:12:27;5.82;;;2.42;;
75071;SDS011;63651;55.728;38.022;2023-04-06T04:17:28;2.88;;;1.95;;
75071;SDS011;63651;55.728;38.022;2023-04-06T04:22:30;3.33;;;2.20;;
75071;SDS011;63651;55.728;38.022;2023-04-06T04:27:31;2.85;;;1.60;;
75071;SDS011;63651;55.728;38.022;2023-04-06T04:32:32;2.78;;;2.03;;
75071;SDS011;63651;55.728;38.022;2023-04-06T04:37:33;3.95;;;2.38;;
75071;SDS011;63651;55.728;38.022;2023-04-06T04:42:35;2.67;;;2.00;;
75071;SDS011;63651;55.728;38.022;2023-04-06T04:47:36;15.23;;;4.15;;
75071;SDS011;63651;55.728;38.022;2023-04-06T04:52:37;19.25;;;5.97;;
75071;SDS011;63651;55.728;38.022;2023-04-06T04:57:38;17.17;;;5.13;;
75071;SDS011;63651;55.728;38.022;2023-04-06T05:02:39;11.95;;;4.25;;
75071;SDS011;63651;55.728;38.022;2023-04-06T05:07:41;10.27;;;3.42;;
75071;SDS011;63651;55.728;38.022;2023-04-06T05:12:42;8.98;;;3.25;;
75071;SDS011;63651;55.728;38.022;2023-04-06T05:17:43;7.05;;;3.90;;
75071;SDS011;63651;55.728;38.022;2023-04-06T05:22:44;8.25;;;3.45;;
75071;SDS011;63651;55.728;38.022;2023-04-06T05:27:45;9.13;;;3.90;;
75071;SDS011;63651;55.728;38.022;2023-04-06T05:32:46;15.73;;;5.07;;
75071;SDS011;63651;55.728;38.022;2023-04-06T05:37:48;11.75;;;4.00;;
75071;SDS011;63651;55.728;38.022;2023-04-06T05:42:49;8.35;;;3.30;;
75071;SDS011;63651;55.728;38.022;2023-04-06T05:47:50;7.22;;;3.47;;
75071;SDS011;63651;55.728;38.022;2023-04-06T05:52:51;9.68;;;3.58;;
75071;SDS011;63651;55.728;38.022;2023-04-06T05:57:52;7.15;;;3.50;;
75071;SDS011;63651;55.728;38.022;2023-04-06T06:02:54;8.88;;;3.00;;
75071;SDS011;63651;55.728;38.022;2023-04-06T06:07:55;6.97;;;3.08;;
75071;SDS011;63651;55.728;38.022;2023-04-06T06:12:56;6.40;;;2.78;;
75071;SDS011;63651;55.728;38.022;2023-04-06T06:17:57;4.78;;;2.42;;
75071;SDS011;63651;55.728;38.022;2023-04-06T06:22:58;5.25;;;2.38;;
75071;SDS011;63651;55.728;38.022;2023-04-06T06:28:18;5.45;;;2.92;;
75071;SDS011;63651;55.728;38.022;2023-04-06T06:33:19;5.00;;;2.25;;
75071;SDS011;63651;55.728;38.022;2023-04-06T06:38:20;5.35;;;2.10;;
75071;SDS011;63651;55.728;38.022;2023-04-06T06:43:21;5.13;;;2.50;;
75071;SDS011;63651;55.728;38.022;2023-04-06T06:48:22;5.15;;;2.60;;
75071;SDS011;63651;55.728;38.022;2023-04-06T06:59:01;3.17;;;2.00;;
75071;SDS011;63651;55.728;38.022;2023-04-06T07:04:02;4.60;;;1.95;;
75071;SDS011;63651;55.728;38.022;2023-04-06T07:09:03;3.70;;;2.00;;
75071;SDS011;63651;55.728;38.022;2023-04-06T07:14:05;4.15;;;1.90;;
75071;SDS011;63651;55.728;38.022;2023-04-06T07:19:06;2.97;;;1.75;;
75071;SDS011;63651;55.728;38.022;2023-04-06T07:24:07;4.65;;;2.00;;
75071;SDS011;63651;55.728;38.022;2023-04-06T07:29:08;4.32;;;2.13;;
75071;SDS011;63651;55.728;38.022;2023-04-06T07:34:09;5.80;;;2.25;;
75071;SDS011;63651;55.728;38.022;2023-04-06T07:39:10;3.80;;;2.03;;
75071;SDS011;63651;55.728;38.022;2023-04-06T07:44:11;3.75;;;1.75;;
75071;SDS011;63651;55.728;38.022;2023-04-06T07:49:13;3.85;;;1.73;;
75071;SDS011;63651;55.728;38.022;2023-04-06T07:54:15;3.75;;;1.83;;
75071;SDS011;63651;55.728;38.022;2023-04-06T07:59:16;3.15;;;2.10;;
75071;SDS011;63651;55.728;38.022;2023-04-06T08:04:17;2.50;;;1.55;;
75071;SDS011;63651;55.728;38.022;2023-04-06T08:09:18;3.40;;;1.67;;
75071;SDS011;63651;55.728;38.022;2023-04-06T08:14:19;4.40;;;1.90;;
75071;SDS011;63651;55.728;38.022;2023-04-06T08:19:20;4.22;;;1.90;;
75071;SDS011;63651;55.728;38.022;2023-04-06T08:24:21;5.25;;;1.73;;
75071;SDS011;63651;55.728;38.022;2023-04-06T08:29:22;3.80;;;1.67;;
75071;SDS011;63651;55.728;38.022;2023-04-06T08:34:24;4.90;;;1.60;;
75071;SDS011;63651;55.728;38.022;2023-04-06T08:39:25;3.90;;;1.70;;
75071;SDS011;63651;55.728;38.022;2023-04-06T08:44:28;2.08;;;1.67;;
75071;SDS011;63651;55.728;38.022;2023-04-06T08:49:30;2.33;;;1.58;;
75071;SDS011;63651;55.728;38.022;2023-04-06T08:54:33;2.78;;;1.70;;
75071;SDS011;63651;55.728;38.022;2023-04-06T08:59:35;2.80;;;1.63;;
75071;SDS011;63651;55.728;38.022;2023-04-06T09:04:36;2.67;;;1.60;;
75071;SDS011;63651;55.728;38.022;2023-04-06T09:09:38;3.70;;;1.63;;
75071;SDS011;63651;55.728;38.022;2023-04-06T09:14:43;2.05;;;1.63;;
75071;SDS011;63651;55.728;38.022;2023-04-06T09:19:45;4.10;;;1.80;;
75071;SDS011;63651;55.728;38.022;2023-04-06T09:29:50;3.38;;;1.70;;
75071;SDS011;63651;55.728;38.022;2023-04-06T09:34:51;3.15;;;1.50;;
75071;SDS011;63651;55.728;38.022;2023-04-06T09:40:01;2.47;;;1.98;;
75071;SDS011;63651;55.728;38.022;2023-04-06T09:45:06;6.32;;;2.00;;
75071;SDS011;63651;55.728;38.022;2023-04-06T09:50:08;4.32;;;1.83;;
75071;SDS011;63651;55.728;38.022;2023-04-06T09:55:11;1.88;;;1.55;;
75071;SDS011;63651;55.728;38.022;2023-04-06T10:00:17;4.50;;;1.60;;
75071;SDS011;63651;55.728;38.022;2023-04-06T10:05:33;4.53;;;1.40;;
75071;SDS011;63651;55.728;38.022;2023-04-06T10:10:55;4.55;;;1.52;;
75071;SDS011;63651;55.728;38.022;2023-04-06T10:21:35;7.70;;;2.47;;
75071;SDS011;63651;55.728;38.022;2023-04-06T10:26:38;5.55;;;2.30;;
75071;SDS011;63651;55.728;38.022;2023-04-06T10:37:09;3.55;;;1.92;;
75071;SDS011;63651;55.728;38.022;2023-04-06T10:42:14;3.95;;;1.60;;
75071;SDS011;63651;55.728;38.022;2023-04-06T10:47:16;4.50;;;1.75;;
75071;SDS011;63651;55.728;38.022;2023-04-06T10:52:21;1.77;;;1.45;;
75071;SDS011;63651;55.728;38.022;2023-04-06T10:57:28;4.30;;;1.55;;
75071;SDS011;63651;55.728;38.022;2023-04-06T11:02:31;2.42;;;1.95;;
75071;SDS011;63651;55.728;38.022;2023-04-06T11:07:32;3.95;;;1.50;;
75071;SDS011;63651;55.728;38.022;2023-04-06T11:12:34;3.00;;;1.80;;
75071;SDS011;63651;55.728;38.022;2023-04-06T11:17:36;4.00;;;1.70;;
75071;SDS011;63651;55.728;38.022;2023-04-06T11:22:50;3.65;;;1.55;;
75071;SDS011;63651;55.728;38.022;2023-04-06T11:27:52;2.92;;;1.55;;
75071;SDS011;63651;55.728;38.022;2023-04-06T11:32:59;3.25;;;1.35;;
75071;SDS011;63651;55.728;38.022;2023-04-06T11:38:04;5.18;;;1.50;;
75071;SDS011;63651;55.728;38.022;2023-04-06T11:43:06;3.05;;;1.35;;
75071;SDS011;63651;55.728;38.022;2023-04-06T11:48:18;3.20;;;2.45;;
75071;SDS011;63651;55.728;38.022;2023-04-06T11:53:20;3.85;;;1.60;;
75071;SDS011;63651;55.728;38.022;2023-04-06T11:58:21;2.80;;;1.38;;
75071;SDS011;63651;55.728;38.022;2023-04-06T12:03:22;5.90;;;1.70;;
75071;SDS011;63651;55.728;38.022;2023-04-06T12:08:23;3.75;;;1.42;;
75071;SDS011;63651;55.728;38.022;2023-04-06T12:13:26;4.55;;;1.60;;
75071;SDS011;63651;55.728;38.022;2023-04-06T12:18:28;2.97;;;1.70;;
75071;SDS011;63651;55.728;38.022;2023-04-06T12:23:29;3.90;;;1.73;;
75071;SDS011;63651;55.728;38.022;2023-04-06T12:28:31;2.97;;;1.50;;
75071;SDS011;63651;55.728;38.022;2023-04-06T12:33:32;2.95;;;1.45;;
75071;SDS011;63651;55.728;38.022;2023-04-06T12:38:33;2.40;;;1.23;;
75071;SDS011;63651;55.728;38.022;2023-04-06T12:43:34;2.40;;;1.92;;
75071;SDS011;63651;55.728;38.022;2023-04-06T12:48:35;1.35;;;1.05;;
75071;SDS011;63651;55.728;38.022;2023-04-06T12:53:37;2.50;;;1.50;;
75071;SDS011;63651;55.728;38.022;2023-04-06T12:58:38;3.25;;;1.30;;
75071;SDS011;63651;55.728;38.022;2023-04-06T13:03:41;2.67;;;1.40;;
75071;SDS011;63651;55.728;38.022;2023-04-06T13:08:42;5.00;;;1.95;;
75071;SDS011;63651;55.728;38.022;2023-04-06T13:13:43;2.90;;;1.45;;
75071;SDS011;63651;55.728;38.022;2023-04-06T13:18:44;3.22;;;1.50;;
75071;SDS011;63651;55.728;38.022;2023-04-06T13:23:45;3.08;;;1.33;;
75071;SDS011;63651;55.728;38.022;2023-04-06T13:28:47;2.83;;;1.30;;
75071;SDS011;63651;55.728;38.022;2023-04-06T13:33:48;5.47;;;1.40;;
75071;SDS011;63651;55.728;38.022;2023-04-06T13:44:09;3.22;;;1.42;;
75071;SDS011;63651;55.728;38.022;2023-04-06T13:49:10;3.17;;;1.30;;
75071;SDS011;63651;55.728;38.022;2023-04-06T13:59:34;4.35;;;1.25;;
75071;SDS011;63651;55.728;38.022;2023-04-06T14:04:36;2.72;;;1.20;;
75071;SDS011;63651;55.728;38.022;2023-04-06T14:09:37;2.83;;;1.35;;
75071;SDS011;63651;55.728;38.022;2023-04-06T14:14:38;2.28;;;1.20;;
75071;SDS011;63651;55.728;38.022;2023-04-06T14:19:40;3.65;;;1.30;;
75071;SDS011;63651;55.728;38.022;2023-04-06T14:24:41;3.35;;;1.00;;
75071;SDS011;63651;55.728;38.022;2023-04-06T14:29:42;4.78;;;1.88;;
75071;SDS011;63651;55.728;38.022;2023-04-06T14:34:43;2.28;;;1.40;;
75071;SDS011;63651;55.728;38.022;2023-04-06T14:39:44;3.10;;;2.05;;
75071;SDS011;63651;55.728;38.022;2023-04-06T14:50:24;2.85;;;0.90;;
75071;SDS011;63651;55.728;38.022;2023-04-06T14:55:25;2.42;;;1.13;;
75071;SDS011;63651;55.728;38.022;2023-04-06T15:00:28;4.38;;;1.25;;
75071;SDS011;63651;55.728;38.022;2023-04-06T15:05:29;2.05;;;1.17;;
75071;SDS011;63651;55.728;38.022;2023-04-06T15:10:32;1.88;;;0.52;;
75071;SDS011;63651;55.728;38.022;2023-04-06T15:15:33;3.95;;;1.77;;
75071;SDS011;63651;55.728;38.022;2023-04-06T15:20:34;5.13;;;1.20;;
75071;SDS011;63651;55.728;38.022;2023-04-06T15:25:36;2.85;;;1.10;;
75071;SDS011;63651;55.728;38.022;2023-04-06T15:30:37;2.67;;;1.10;;
75071;SDS011;63651;55.728;38.022;2023-04-06T15:35:38;4.15;;;1.20;;
75071;SDS011;63651;55.728;38.022;2023-04-06T15:45:46;1.30;;;0.85;;
75071;SDS011;63651;55.728;38.022;2023-04-06T15:50:47;5.13;;;1.17;;
75071;SDS011;63651;55.728;38.022;2023-04-06T16:02:02;1.73;;;0.68;;
75071;SDS011;63651;55.728;38.022;2023-04-06T16:07:04;2.63;;;0.73;;
75071;SDS011;63651;55.728;38.022;2023-04-06T16:12:05;2.50;;;0.80;;
75071;SDS011;63651;55.728;38.022;2023-04-06T16:17:06;1.63;;;0.82;;
75071;SDS011;63651;55.728;38.022;2023-04-06T16:22:07;3.42;;;1.02;;
75071;SDS011;63651;55.728;38.022;2023-04-06T16:27:08;3.60;;;1.30;;
75071;SDS011;63651;55.728;38.022;2023-04-06T16:32:09;4.72;;;1.00;;
75071;SDS011;63651;55.728;38.022;2023-04-06T16:37:11;4.93;;;1.30;;
75071;SDS011;63651;55.728;38.022;2023-04-06T16:42:15;2.05;;;1.00;;
75071;SDS011;63651;55.728;38.022;2023-04-06T16:47:22;1.92;;;0.85;;
75071;SDS011;63651;55.728;38.022;2023-04-06T16:52:27;2.50;;;1.23;;
75071;SDS011;63651;55.728;38.022;2023-04-06T16:57:28;2.78;;;1.20;;
75071;SDS011;63651;55.728;38.022;2023-04-06T17:02:29;2.45;;;1.00;;
75071;SDS011;63651;55.728;38.022;2023-04-06T17:07:31;2.30;;;0.90;;
75071;SDS011;63651;55.728;38.022;2023-04-06T17:12:35;3.47;;;0.93;;
75071;SDS011;63651;55.728;38.022;2023-04-06T17:17:36;2.05;;;0.80;;
75071;SDS011;63651;55.728;38.022;2023-04-06T17:22:38;3.70;;;1.05;;
75071;SDS011;63651;55.728;38.022;2023-04-06T17:27:39;1.55;;;0.80;;
75071;SDS011;63651;55.728;38.022;2023-04-06T17:32:40;1.70;;;0.80;;
75071;SDS011;63651;55.728;38.022;2023-04-06T17:37:43;3.80;;;1.10;;
75071;SDS011;63651;55.728;38.022;2023-04-06T17:42:45;1.50;;;0.70;;
75071;SDS011;63651;55.728;38.022;2023-04-06T17:47:46;2.25;;;0.90;;
75071;SDS011;63651;55.728;38.022;2023-04-06T17:52:47;1.80;;;0.70;;
75071;SDS011;63651;55.728;38.022;2023-04-06T17:57:51;2.90;;;0.95;;
75071;SDS011;63651;55.728;38.022;2023-04-06T18:02:53;3.22;;;0.60;;
75071;SDS011;63651;55.728;38.022;2023-04-06T18:07:55;1.60;;;0.73;;
75071;SDS011;63651;55.728;38.022;2023-04-06T18:13:00;2.03;;;0.82;;
75071;SDS011;63651;55.728;38.022;2023-04-06T18:18:01;2.33;;;0.93;;
75071;SDS011;63651;55.728;38.022;2023-04-06T18:23:02;1.42;;;0.93;;
75071;SDS011;63651;55.728;38.022;2023-04-06T18:28:03;2.78;;;1.00;;
75071;SDS011;63651;55.728;38.022;2023-04-06T18:33:04;4.40;;;1.27;;
75071;SDS011;63651;55.728;38.022;2023-04-06T18:38:07;3.70;;;1.50;;
75071;SDS011;63651;55.728;38.022;2023-04-06T18:43:08;2.13;;;1.20;;
75071;SDS011;63651;55.728;38.022;2023-04-06T18:48:10;2.70;;;1.70;;
75071;SDS011;63651;55.728;38.022;2023-04-06T18:53:13;3.22;;;1.33;;
75071;SDS011;63651;55.728;38.022;2023-04-06T18:58:14;4.30;;;1.27;;
75071;SDS011;63651;55.728;38.022;2023-04-06T19:03:15;15.98;;;1.83;;
75071;SDS011;63651;55.728;38.022;2023-04-06T19:08:16;4.45;;;1.25;;
75071;SDS011;63651;55.728;38.022;2023-04-06T19:13:17;6.88;;;1.23;;
75071;SDS011;63651;55.728;38.022;2023-04-06T19:18:18;4.72;;;1.17;;
75071;SDS011;63651;55.728;38.022;2023-04-06T19:23:19;4.43;;;1.30;;
75071;SDS011;63651;55.728;38.022;2023-04-06T19:28:20;2.35;;;1.35;;
75071;SDS011;63651;55.728;38.022;2023-04-06T19:33:21;4.47;;;1.10;;
75071;SDS011;63651;55.728;38.022;2023-04-06T19:38:22;2.08;;;1.30;;
75071;SDS011;63651;55.728;38.022;2023-04-06T19:43:24;2.85;;;1.50;;
75071;SDS011;63651;55.728;38.022;2023-04-06T19:48:25;2.60;;;0.98;;
75071;SDS011;63651;55.728;38.022;2023-04-06T19:53:26;1.95;;;1.20;;
75071;SDS011;63651;55.728;38.022;2023-04-06T19:58:28;3.13;;;1.20;;
75071;SDS011;63651;55.728;38.022;2023-04-06T20:03:29;1.77;;;1.10;;
75071;SDS011;63651;55.728;38.022;2023-04-06T20:08:30;2.40;;;1.13;;
75071;SDS011;63651;55.728;38.022;2023-04-06T20:13:32;1.95;;;0.85;;
75071;SDS011;63651;55.728;38.022;2023-04-06T20:18:33;2.72;;;0.73;;
75071;SDS011;63651;55.728;38.022;2023-04-06T20:23:34;4.40;;;0.82;;
75071;SDS011;63651;55.728;38.022;2023-04-06T20:28:37;1.92;;;1.02;;
75071;SDS011;63651;55.728;38.022;2023-04-06T20:33:39;3.17;;;0.90;;
75071;SDS011;63651;55.728;38.022;2023-04-06T20:38:40;1.65;;;0.80;;
75071;SDS011;63651;55.728;38.022;2023-04-06T20:43:41;2.60;;;1.23;;
75071;SDS011;63651;55.728;38.022;2023-04-06T20:48:42;1.90;;;0.93;;
75071;SDS011;63651;55.728;38.022;2023-04-06T20:53:43;1.80;;;0.70;;
75071;SDS011;63651;55.728;38.022;2023-04-06T20:58:46;1.17;;;0.93;;
75071;SDS011;63651;55.728;38.022;2023-04-06T21:03:48;2.03;;;1.23;;
75071;SDS011;63651;55.728;38.022;2023-04-06T21:08:49;0.90;;;0.70;;
75071;SDS011;63651;55.728;38.022;2023-04-06T21:13:50;1.92;;;0.75;;
75071;SDS011;63651;55.728;38.022;2023-04-06T21:18:51;1.55;;;0.88;;
75071;SDS011;63651;55.728;38.022;2023-04-06T21:23:52;1.55;;;0.70;;
75071;SDS011;63651;55.728;38.022;2023-04-06T21:28:53;1.10;;;0.70;;
75071;SDS011;63651;55.728;38.022;2023-04-06T21:33:54;1.77;;;0.95;;
75071;SDS011;63651;55.728;38.022;2023-04-06T21:38:55;1.70;;;0.90;;
75071;SDS011;63651;55.728;38.022;2023-04-06T21:43:56;1.83;;;1.02;;
75071;SDS011;63651;55.728;38.022;2023-04-06T21:48:58;1.65;;;0.88;;
75071;SDS011;63651;55.728;38.022;2023-04-06T21:53:59;1.23;;;0.93;;
75071;SDS011;63651;55.728;38.022;2023-04-06T21:59:01;2.58;;;0.73;;
75071;SDS011;63651;55.728;38.022;2023-04-06T22:04:02;1.90;;;0.82;;
75071;SDS011;63651;55.728;38.022;2023-04-06T22:09:03;1.65;;;0.93;;
75071;SDS011;63651;55.728;38.022;2023-04-06T22:14:05;2.70;;;0.85;;
75071;SDS011;63651;55.728;38.022;2023-04-06T22:19:06;2.58;;;1.38;;
75071;SDS011;63651;55.728;38.022;2023-04-06T22:24:07;1.65;;;0.77;;
75071;SDS011;63651;55.728;38.022;2023-04-06T22:29:08;1.92;;;0.90;;
75071;SDS011;63651;55.728;38.022;2023-04-06T22:34:09;3.08;;;0.90;;
75071;SDS011;63651;55.728;38.022;2023-04-06T22:39:10;2.65;;;0.93;;
75071;SDS011;63651;55.728;38.022;2023-04-06T22:44:11;2.35;;;0.80;;
75071;SDS011;63651;55.728;38.022;2023-04-06T22:49:12;1.80;;;1.00;;
75071;SDS011;63651;55.728;38.022;2023-04-06T22:54:13;1.10;;;0.90;;
75071;SDS011;63651;55.728;38.022;2023-04-06T22:59:14;1.50;;;0.70;;
75071;SDS011;63651;55.728;38.022;2023-04-06T23:04:15;1.80;;;1.05;;
75071;SDS011;63651;55.728;38.022;2023-04-06T23:09:16;1.63;;;1.30;;
75071;SDS011;63651;55.728;38.022;2023-04-06T23:14:17;2.28;;;0.80;;
75071;SDS011;63651;55.728;38.022;2023-04-06T23:19:18;1.23;;;0.75;;
75071;SDS011;63651;55.728;38.022;2023-04-06T23:24:19;1.60;;;0.93;;
75071;SDS011;63651;55.728;38.022;2023-04-06T23:29:20;2.00;;;1.20;;
75071;SDS011;63651;55.728;38.022;2023-04-06T23:34:21;1.30;;;0.70;;
75071;SDS011;63651;55.728;38.022;2023-04-06T23:39:22;0.90;;;0.63;;
75071;SDS011;63651;55.728;38.022;2023-04-06T23:44:23;1.98;;;0.90;;
75071;SDS011;63651;55.728;38.022;2023-04-06T23:49:24;2.20;;;0.85;;
75071;SDS011;63651;55.728;38.022;2023-04-06T23:54:25;1.20;;;0.82;;
75071;SDS011;63651;55.728;38.022;2023-04-06T23:59:26;2.55;;;0.90;;
